PWSweather.com
Personal Weather Stations
Station Observations
KMAMEDFI2
Medfield, MA 02052

Medfield, MA 02052

Lat: 42.1900822, Lon: -71.3296889

Elevation: 138

Station Type: Rainwise WS MK-III

http://www.medfieldweather.com

Latest ConditionsUpdated 6:10:00 AM EDT Saturday, Nov 1, 2014
Currently Today's Max Today's Min Today's Average
Temperature 42.2°F5.7°C 46.8°F8.2°C 42.2°F5.7°C 44.8°F7.1°C
Dew Point 36.7°F2.6°C 39.8°F4.3°C 36.3°F2.4°C 38.2°F3.4°C
Winds 1.4 mph N2.3 kmh N 4.8 mph N7.7 kmh N - 2.1 mph 3.4 kmh
Wind Gusts 4.2 mph6.8 kmh 12.6 mph20.3 kmh - -
Humidity 81% 81% 74% 78%
Pressure 29.83 in1010.2 mb 29.89 in1012.2 mb 29.81 in1009.5 mb -
Hour Temp Dew Point Humidity Winds Wind Gusts Pressure Precip Precip Rate Daily Precip Total
06:10 AM 42.2°F5.7°C 36.7°F2.6°C 81% 1.4 mph N2.3 kmh N 4.2 mph6.8 kmh 29.83 in1010.2 mb 0.00 in0.0 mm 0.00 in/hr0.0 mm/hr 0.00 in0.0 mm
06:00 AM 42.3°F5.7°C 36.6°F2.6°C 80% 2.0 mph NE3.2 kmh NE 2.8 mph4.5 kmh 29.83 in1010.2 mb 0.00 in0.0 mm 0.00 in/hr0.0 mm/hr 0.00 in0.0 mm
05:50 AM 42.4°F5.8°C 36.4°F2.4°C 79% 3.3 mph SE5.3 kmh SE 7.0 mph11.3 kmh 29.82 in1009.8 mb 0.00 in0.0 mm 0.00 in/hr0.0 mm/hr 0.00 in0.0 mm
05:40 AM 42.5°F5.8°C 36.4°F2.4°C 79% 1.9 mph SSE3.1 kmh SSE 4.2 mph6.8 kmh 29.82 in1009.8 mb 0.00 in0.0 mm 0.00 in/hr0.0 mm/hr 0.00 in0.0 mm
05:30 AM 42.7°F5.9°C 36.3°F2.4°C 78% 3.0 mph SE4.8 kmh SE 5.6 mph9.0 kmh 29.83 in1010.2 mb 0.00 in0.0 mm 0.00 in/hr0.0 mm/hr 0.00 in0.0 mm
05:20 AM 42.8°F6.0°C 36.5°F2.5°C 78% 2.2 mph N3.5 kmh N 8.4 mph13.5 kmh 29.82 in1009.8 mb 0.00 in0.0 mm 0.00 in/hr0.0 mm/hr 0.00 in0.0 mm
05:10 AM 43.2°F6.2°C 36.8°F2.7°C 78% 4.8 mph N7.7 kmh N 12.6 mph20.3 kmh 29.82 in1009.8 mb 0.00 in0.0 mm 0.00 in/hr0.0 mm/hr 0.00 in0.0 mm
05:00 AM 43.4°F6.3°C 37.0°F2.8°C 78% 2.5 mph W4.0 kmh W 2.8 mph4.5 kmh 29.82 in1009.8 mb 0.00 in0.0 mm 0.00 in/hr0.0 mm/hr 0.00 in0.0 mm
04:50 AM 43.7°F6.5°C 37.3°F2.9°C 78% 2.9 mph NNW4.7 kmh NNW 5.6 mph9.0 kmh 29.83 in1010.2 mb 0.00 in0.0 mm 0.00 in/hr0.0 mm/hr 0.00 in0.0 mm
04:40 AM 43.8°F6.6°C 37.4°F3.0°C 78% 1.1 mph WNW1.8 kmh WNW 2.8 mph4.5 kmh 29.81 in1009.5 mb 0.00 in0.0 mm 0.00 in/hr0.0 mm/hr 0.00 in0.0 mm
04:30 AM 44.0°F6.7°C 37.6°F3.1°C 78% 2.5 mph ESE4.0 kmh ESE 2.8 mph4.5 kmh 29.82 in1009.8 mb 0.00 in0.0 mm 0.00 in/hr0.0 mm/hr 0.00 in0.0 mm
04:20 AM 44.2°F6.8°C 37.8°F3.2°C 78% 1.2 mph W1.9 kmh W 4.2 mph6.8 kmh 29.83 in1010.2 mb 0.00 in0.0 mm 0.00 in/hr0.0 mm/hr 0.00 in0.0 mm
04:10 AM 44.4°F6.9°C 37.6°F3.1°C 77% 3.9 mph N6.3 kmh N 8.4 mph13.5 kmh 29.83 in1010.2 mb 0.00 in0.0 mm 0.00 in/hr0.0 mm/hr 0.00 in0.0 mm
04:00 AM 44.4°F6.9°C 38.0°F3.3°C 78% 2.6 mph NE4.2 kmh NE 4.2 mph6.8 kmh 29.84 in1010.5 mb 0.00 in0.0 mm 0.00 in/hr0.0 mm/hr 0.00 in0.0 mm
03:50 AM 44.6°F7.0°C 38.4°F3.6°C 79% 3.7 mph SE6.0 kmh SE 2.8 mph4.5 kmh 29.84 in1010.5 mb 0.00 in0.0 mm 0.00 in/hr0.0 mm/hr 0.00 in0.0 mm
03:40 AM 44.6°F7.0°C 38.8°F3.8°C 80% 1.9 mph SE3.1 kmh SE 2.8 mph4.5 kmh 29.85 in1010.8 mb 0.00 in0.0 mm 0.00 in/hr0.0 mm/hr 0.00 in0.0 mm
03:30 AM 44.7°F7.1°C 38.9°F3.8°C 80% 1.0 mph NE1.6 kmh NE 2.8 mph4.5 kmh 29.85 in1010.8 mb 0.00 in0.0 mm 0.00 in/hr0.0 mm/hr 0.00 in0.0 mm
03:20 AM 45.0°F7.2°C 39.5°F4.2°C 81% 1.2 mph S1.9 kmh S 5.6 mph9.0 kmh 29.84 in1010.5 mb 0.00 in0.0 mm 0.00 in/hr0.0 mm/hr 0.00 in0.0 mm
03:10 AM 45.3°F7.4°C 39.5°F4.2°C 80% 1.7 mph NW2.7 kmh NW 4.2 mph6.8 kmh 29.85 in1010.8 mb 0.00 in0.0 mm 0.00 in/hr0.0 mm/hr 0.00 in0.0 mm
03:00 AM 45.4°F7.4°C 39.3°F4.1°C 79% 3.5 mph ESE5.6 kmh ESE 5.6 mph9.0 kmh 29.85 in1010.8 mb 0.00 in0.0 mm 0.00 in/hr0.0 mm/hr 0.00 in0.0 mm
02:50 AM 45.5°F7.5°C 38.7°F3.7°C 77% 2.6 mph S4.2 kmh S 7.0 mph11.3 kmh 29.85 in1010.8 mb 0.00 in0.0 mm 0.00 in/hr0.0 mm/hr 0.00 in0.0 mm
02:40 AM 45.5°F7.5°C 38.7°F3.7°C 77% 2.4 mph WNW3.9 kmh WNW 8.4 mph13.5 kmh 29.86 in1011.2 mb 0.00 in0.0 mm 0.00 in/hr0.0 mm/hr 0.00 in0.0 mm
02:30 AM 45.2°F7.3°C 38.4°F3.6°C 77% 2.9 mph NW4.7 kmh NW 5.6 mph9.0 kmh 29.85 in1010.8 mb 0.00 in0.0 mm 0.00 in/hr0.0 mm/hr 0.00 in0.0 mm
02:20 AM 45.0°F7.2°C 38.6°F3.7°C 78% 2.3 mph SSW3.7 kmh SSW 8.4 mph13.5 kmh 29.84 in1010.5 mb 0.00 in0.0 mm 0.00 in/hr0.0 mm/hr 0.00 in0.0 mm
02:10 AM 45.3°F7.4°C 38.5°F3.6°C 77% 1.8 mph ESE2.9 kmh ESE 2.8 mph4.5 kmh 29.84 in1010.5 mb 0.00 in0.0 mm 0.00 in/hr0.0 mm/hr 0.00 in0.0 mm
02:00 AM 45.6°F7.6°C 38.5°F3.6°C 76% 1.2 mph SSE1.9 kmh SSE 2.8 mph4.5 kmh 29.85 in1010.8 mb 0.00 in0.0 mm 0.00 in/hr0.0 mm/hr 0.00 in0.0 mm
01:50 AM 45.8°F7.7°C 38.3°F3.5°C 75% 3.2 mph NW5.1 kmh NW 7.0 mph11.3 kmh 29.85 in1010.8 mb 0.00 in0.0 mm 0.00 in/hr0.0 mm/hr 0.00 in0.0 mm
01:40 AM 45.9°F7.7°C 38.8°F3.8°C 76% 0.7 mph NNW1.1 kmh NNW 2.8 mph4.5 kmh 29.85 in1010.8 mb 0.00 in0.0 mm 0.00 in/hr0.0 mm/hr 0.00 in0.0 mm
01:30 AM 45.8°F7.7°C 38.7°F3.7°C 76% 0.7 mph S1.1 kmh S 2.8 mph4.5 kmh 29.86 in1011.2 mb 0.00 in0.0 mm 0.00 in/hr0.0 mm/hr 0.00 in0.0 mm
01:20 AM 45.9°F7.7°C 38.7°F3.7°C 76% 1.8 mph NE2.9 kmh NE 2.8 mph4.5 kmh 29.86 in1011.2 mb 0.00 in0.0 mm 0.00 in/hr0.0 mm/hr 0.00 in0.0 mm
01:10 AM 45.8°F7.7°C 38.7°F3.7°C 76% 1.6 mph NE2.6 kmh NE 2.8 mph4.5 kmh 29.87 in1011.5 mb 0.00 in0.0 mm 0.00 in/hr0.0 mm/hr 0.00 in0.0 mm
01:00 AM 45.9°F7.7°C 38.5°F3.6°C 75% 1.8 mph SE2.9 kmh SE 2.8 mph4.5 kmh 29.87 in1011.5 mb 0.00 in0.0 mm 0.00 in/hr0.0 mm/hr 0.00 in0.0 mm
12:50 AM 46.1°F7.8°C 38.6°F3.7°C 75% 1.9 mph ESE3.1 kmh ESE 2.8 mph4.5 kmh 29.87 in1011.5 mb 0.00 in0.0 mm 0.00 in/hr0.0 mm/hr 0.00 in0.0 mm
12:40 AM 46.3°F7.9°C 38.5°F3.6°C 74% 1.7 mph NE2.7 kmh NE 2.8 mph4.5 kmh 29.87 in1011.5 mb 0.00 in0.0 mm 0.00 in/hr0.0 mm/hr 0.00 in0.0 mm
12:30 AM 46.5°F8.1°C 39.0°F3.9°C 75% 0.6 mph SW1.0 kmh SW 2.8 mph4.5 kmh 29.87 in1011.5 mb 0.00 in0.0 mm 0.00 in/hr0.0 mm/hr 0.00 in0.0 mm
12:20 AM 46.6°F8.1°C 39.4°F4.1°C 76% 2.2 mph SE3.5 kmh SE 5.6 mph9.0 kmh 29.87 in1011.5 mb 0.00 in0.0 mm 0.00 in/hr0.0 mm/hr 0.00 in0.0 mm
12:10 AM 46.6°F8.1°C 39.8°F4.3°C 77% 1.1 mph N1.8 kmh N 2.8 mph4.5 kmh 29.89 in1012.2 mb 0.00 in0.0 mm 0.00 in/hr0.0 mm/hr 0.00 in0.0 mm
12:00 AM 46.8°F8.2°C 39.6°F4.2°C 76% 0.5 mph SE0.8 kmh SE 2.8 mph4.5 kmh 29.88 in1011.9 mb 0.00 in0.0 mm 0.00 in/hr0.0 mm/hr 0.00 in0.0 mm